sensor_id;sensor_type;location;lat;lon;timestamp;P1;durP1;ratioP1;P2;durP2;ratioP2
51459;SDS011;37534;39.772;2.718;2023-10-31T00:01:34;8.63;;;2.58;;
51459;SDS011;37534;39.772;2.718;2023-10-31T00:03:59;4.68;;;2.83;;
51459;SDS011;37534;39.772;2.718;2023-10-31T00:06:25;9.32;;;3.58;;
51459;SDS011;37534;39.772;2.718;2023-10-31T00:08:50;8.82;;;3.33;;
51459;SDS011;37534;39.772;2.718;2023-10-31T00:11:16;3.60;;;3.17;;
51459;SDS011;37534;39.772;2.718;2023-10-31T00:13:42;3.42;;;2.65;;
51459;SDS011;37534;39.772;2.718;2023-10-31T00:16:07;17.73;;;8.65;;
51459;SDS011;37534;39.772;2.718;2023-10-31T00:18:33;13.65;;;8.43;;
51459;SDS011;37534;39.772;2.718;2023-10-31T00:20:59;10.00;;;7.05;;
51459;SDS011;37534;39.772;2.718;2023-10-31T00:23:24;14.00;;;6.03;;
51459;SDS011;37534;39.772;2.718;2023-10-31T00:25:50;8.23;;;5.13;;
51459;SDS011;37534;39.772;2.718;2023-10-31T00:28:15;6.68;;;4.35;;
51459;SDS011;37534;39.772;2.718;2023-10-31T00:30:41;11.27;;;6.10;;
51459;SDS011;37534;39.772;2.718;2023-10-31T00:33:06;14.20;;;6.07;;
51459;SDS011;37534;39.772;2.718;2023-10-31T00:35:32;10.63;;;5.90;;
51459;SDS011;37534;39.772;2.718;2023-10-31T00:37:57;12.43;;;6.97;;
51459;SDS011;37534;39.772;2.718;2023-10-31T00:40:23;10.88;;;5.93;;
51459;SDS011;37534;39.772;2.718;2023-10-31T00:42:48;11.13;;;4.40;;
51459;SDS011;37534;39.772;2.718;2023-10-31T00:45:14;7.82;;;4.40;;
51459;SDS011;37534;39.772;2.718;2023-10-31T00:47:39;13.75;;;5.47;;
51459;SDS011;37534;39.772;2.718;2023-10-31T00:50:06;10.98;;;6.20;;
51459;SDS011;37534;39.772;2.718;2023-10-31T00:52:32;13.38;;;6.38;;
51459;SDS011;37534;39.772;2.718;2023-10-31T00:54:58;9.73;;;4.63;;
51459;SDS011;37534;39.772;2.718;2023-10-31T00:57:23;9.27;;;5.05;;
51459;SDS011;37534;39.772;2.718;2023-10-31T00:59:49;8.57;;;5.80;;
51459;SDS011;37534;39.772;2.718;2023-10-31T01:02:15;28.48;;;19.83;;
51459;SDS011;37534;39.772;2.718;2023-10-31T01:04:40;30.33;;;20.35;;
51459;SDS011;37534;39.772;2.718;2023-10-31T01:07:06;31.88;;;21.17;;
51459;SDS011;37534;39.772;2.718;2023-10-31T01:09:31;30.17;;;17.73;;
51459;SDS011;37534;39.772;2.718;2023-10-31T01:11:57;20.55;;;12.35;;
51459;SDS011;37534;39.772;2.718;2023-10-31T01:14:22;21.08;;;12.15;;
51459;SDS011;37534;39.772;2.718;2023-10-31T01:16:48;19.92;;;11.15;;
51459;SDS011;37534;39.772;2.718;2023-10-31T01:19:14;7.50;;;6.75;;
51459;SDS011;37534;39.772;2.718;2023-10-31T01:21:39;5.68;;;4.97;;
51459;SDS011;37534;39.772;2.718;2023-10-31T01:24:05;8.05;;;4.95;;
51459;SDS011;37534;39.772;2.718;2023-10-31T01:26:31;10.10;;;5.25;;
51459;SDS011;37534;39.772;2.718;2023-10-31T01:28:56;6.60;;;4.45;;
51459;SDS011;37534;39.772;2.718;2023-10-31T01:31:23;6.18;;;3.22;;
51459;SDS011;37534;39.772;2.718;2023-10-31T01:33:48;6.38;;;2.67;;
51459;SDS011;37534;39.772;2.718;2023-10-31T01:36:14;8.07;;;3.13;;
51459;SDS011;37534;39.772;2.718;2023-10-31T01:38:39;4.68;;;2.70;;
51459;SDS011;37534;39.772;2.718;2023-10-31T01:41:05;6.82;;;3.70;;
51459;SDS011;37534;39.772;2.718;2023-10-31T01:43:35;7.25;;;3.60;;
51459;SDS011;37534;39.772;2.718;2023-10-31T01:46:02;6.07;;;3.90;;
51459;SDS011;37534;39.772;2.718;2023-10-31T01:48:32;8.90;;;3.60;;
51459;SDS011;37534;39.772;2.718;2023-10-31T01:50:58;3.80;;;2.63;;
51459;SDS011;37534;39.772;2.718;2023-10-31T01:53:26;8.00;;;3.03;;
51459;SDS011;37534;39.772;2.718;2023-10-31T01:55:54;2.10;;;1.63;;
51459;SDS011;37534;39.772;2.718;2023-10-31T01:58:23;5.43;;;2.42;;
51459;SDS011;37534;39.772;2.718;2023-10-31T02:00:53;6.05;;;1.70;;
51459;SDS011;37534;39.772;2.718;2023-10-31T02:03:20;5.97;;;1.70;;
51459;SDS011;37534;39.772;2.718;2023-10-31T02:05:46;2.03;;;1.83;;
51459;SDS011;37534;39.772;2.718;2023-10-31T02:08:11;2.30;;;1.30;;
51459;SDS011;37534;39.772;2.718;2023-10-31T02:10:37;3.90;;;1.65;;
51459;SDS011;37534;39.772;2.718;2023-10-31T02:13:15;1.88;;;1.15;;
51459;SDS011;37534;39.772;2.718;2023-10-31T02:15:42;2.08;;;1.17;;
51459;SDS011;37534;39.772;2.718;2023-10-31T02:18:08;1.30;;;1.00;;
51459;SDS011;37534;39.772;2.718;2023-10-31T02:20:34;4.68;;;1.25;;
51459;SDS011;37534;39.772;2.718;2023-10-31T02:23:01;3.35;;;1.30;;
51459;SDS011;37534;39.772;2.718;2023-10-31T02:25:27;3.00;;;1.27;;
51459;SDS011;37534;39.772;2.718;2023-10-31T02:27:53;1.92;;;1.42;;
51459;SDS011;37534;39.772;2.718;2023-10-31T02:30:18;2.30;;;1.52;;
51459;SDS011;37534;39.772;2.718;2023-10-31T02:32:44;8.55;;;1.27;;
51459;SDS011;37534;39.772;2.718;2023-10-31T02:35:09;4.15;;;1.00;;
51459;SDS011;37534;39.772;2.718;2023-10-31T02:37:35;5.38;;;1.20;;
51459;SDS011;37534;39.772;2.718;2023-10-31T02:40:01;6.65;;;1.63;;
51459;SDS011;37534;39.772;2.718;2023-10-31T02:42:27;2.42;;;1.10;;
51459;SDS011;37534;39.772;2.718;2023-10-31T02:44:53;1.67;;;1.00;;
51459;SDS011;37534;39.772;2.718;2023-10-31T02:47:19;3.20;;;1.05;;
51459;SDS011;37534;39.772;2.718;2023-10-31T02:49:45;2.40;;;1.08;;
51459;SDS011;37534;39.772;2.718;2023-10-31T02:52:11;1.00;;;0.90;;
51459;SDS011;37534;39.772;2.718;2023-10-31T02:54:36;3.30;;;1.23;;
51459;SDS011;37534;39.772;2.718;2023-10-31T02:57:02;1.85;;;0.85;;
51459;SDS011;37534;39.772;2.718;2023-10-31T02:59:28;3.65;;;1.15;;
51459;SDS011;37534;39.772;2.718;2023-10-31T03:01:55;3.83;;;1.83;;
51459;SDS011;37534;39.772;2.718;2023-10-31T03:04:21;3.05;;;1.13;;
51459;SDS011;37534;39.772;2.718;2023-10-31T03:06:47;3.80;;;1.25;;
51459;SDS011;37534;39.772;2.718;2023-10-31T03:09:13;2.13;;;1.10;;
51459;SDS011;37534;39.772;2.718;2023-10-31T03:11:38;5.40;;;1.27;;
51459;SDS011;37534;39.772;2.718;2023-10-31T03:14:04;3.70;;;1.58;;
51459;SDS011;37534;39.772;2.718;2023-10-31T03:16:29;1.17;;;0.90;;
51459;SDS011;37534;39.772;2.718;2023-10-31T03:18:55;1.83;;;1.20;;
51459;SDS011;37534;39.772;2.718;2023-10-31T03:21:21;4.75;;;1.30;;
51459;SDS011;37534;39.772;2.718;2023-10-31T03:23:47;2.92;;;1.00;;
51459;SDS011;37534;39.772;2.718;2023-10-31T03:26:14;3.90;;;1.75;;
51459;SDS011;37534;39.772;2.718;2023-10-31T03:28:40;1.85;;;0.77;;
51459;SDS011;37534;39.772;2.718;2023-10-31T03:31:08;3.55;;;1.30;;
51459;SDS011;37534;39.772;2.718;2023-10-31T03:33:34;2.38;;;1.00;;
51459;SDS011;37534;39.772;2.718;2023-10-31T03:35:59;6.15;;;1.40;;
51459;SDS011;37534;39.772;2.718;2023-10-31T03:38:25;6.63;;;1.70;;
51459;SDS011;37534;39.772;2.718;2023-10-31T03:40:50;3.47;;;1.30;;
51459;SDS011;37534;39.772;2.718;2023-10-31T03:43:16;16.73;;;3.80;;
51459;SDS011;37534;39.772;2.718;2023-10-31T03:45:41;5.18;;;2.65;;
51459;SDS011;37534;39.772;2.718;2023-10-31T03:48:07;11.90;;;2.78;;
51459;SDS011;37534;39.772;2.718;2023-10-31T03:50:32;4.03;;;2.33;;
51459;SDS011;37534;39.772;2.718;2023-10-31T03:52:59;7.28;;;2.65;;
51459;SDS011;37534;39.772;2.718;2023-10-31T03:55:24;4.13;;;2.60;;
51459;SDS011;37534;39.772;2.718;2023-10-31T03:57:50;3.58;;;1.83;;
51459;SDS011;37534;39.772;2.718;2023-10-31T04:00:15;4.63;;;2.10;;
51459;SDS011;37534;39.772;2.718;2023-10-31T04:02:41;10.50;;;2.80;;
51459;SDS011;37534;39.772;2.718;2023-10-31T04:05:07;2.92;;;1.65;;
51459;SDS011;37534;39.772;2.718;2023-10-31T04:07:33;3.83;;;1.90;;
51459;SDS011;37534;39.772;2.718;2023-10-31T04:09:58;1.75;;;1.42;;
51459;SDS011;37534;39.772;2.718;2023-10-31T04:12:24;3.47;;;1.50;;
51459;SDS011;37534;39.772;2.718;2023-10-31T04:14:50;6.78;;;1.60;;
51459;SDS011;37534;39.772;2.718;2023-10-31T04:17:15;4.20;;;1.73;;
51459;SDS011;37534;39.772;2.718;2023-10-31T04:19:41;5.18;;;1.67;;
51459;SDS011;37534;39.772;2.718;2023-10-31T04:22:06;4.50;;;1.40;;
51459;SDS011;37534;39.772;2.718;2023-10-31T04:24:32;1.40;;;0.70;;
51459;SDS011;37534;39.772;2.718;2023-10-31T04:30:19;1.55;;;1.13;;
51459;SDS011;37534;39.772;2.718;2023-10-31T04:32:47;1.92;;;0.95;;
51459;SDS011;37534;39.772;2.718;2023-10-31T04:35:13;3.25;;;1.08;;
51459;SDS011;37534;39.772;2.718;2023-10-31T04:37:39;1.48;;;1.10;;
51459;SDS011;37534;39.772;2.718;2023-10-31T04:40:16;1.70;;;1.10;;
51459;SDS011;37534;39.772;2.718;2023-10-31T04:42:51;1.52;;;0.60;;
51459;SDS011;37534;39.772;2.718;2023-10-31T04:45:28;1.67;;;1.23;;
51459;SDS011;37534;39.772;2.718;2023-10-31T04:47:59;2.58;;;1.00;;
51459;SDS011;37534;39.772;2.718;2023-10-31T04:50:28;2.15;;;0.88;;
51459;SDS011;37534;39.772;2.718;2023-10-31T04:52:59;3.95;;;1.08;;
51459;SDS011;37534;39.772;2.718;2023-10-31T04:55:36;2.30;;;0.90;;
51459;SDS011;37534;39.772;2.718;2023-10-31T04:58:12;3.58;;;1.58;;
51459;SDS011;37534;39.772;2.718;2023-10-31T05:00:46;1.50;;;1.00;;
51459;SDS011;37534;39.772;2.718;2023-10-31T05:03:19;1.35;;;0.68;;
51459;SDS011;37534;39.772;2.718;2023-10-31T05:08:51;6.28;;;1.23;;
51459;SDS011;37534;39.772;2.718;2023-10-31T05:11:22;0.50;;;0.50;;
51459;SDS011;37534;39.772;2.718;2023-10-31T05:17:15;0.82;;;0.82;;
51459;SDS011;37534;39.772;2.718;2023-10-31T05:20:07;3.13;;;0.60;;
51459;SDS011;37534;39.772;2.718;2023-10-31T05:22:42;1.08;;;0.70;;
51459;SDS011;37534;39.772;2.718;2023-10-31T05:25:21;5.45;;;1.50;;
51459;SDS011;37534;39.772;2.718;2023-10-31T05:27:58;2.90;;;1.38;;
51459;SDS011;37534;39.772;2.718;2023-10-31T05:30:24;2.70;;;1.30;;
51459;SDS011;37534;39.772;2.718;2023-10-31T05:32:50;3.67;;;1.70;;
51459;SDS011;37534;39.772;2.718;2023-10-31T05:35:16;2.10;;;1.15;;
51459;SDS011;37534;39.772;2.718;2023-10-31T05:37:42;2.63;;;0.85;;
51459;SDS011;37534;39.772;2.718;2023-10-31T05:40:08;3.78;;;1.58;;
51459;SDS011;37534;39.772;2.718;2023-10-31T05:42:34;2.97;;;1.38;;
51459;SDS011;37534;39.772;2.718;2023-10-31T05:45:00;3.78;;;1.05;;
51459;SDS011;37534;39.772;2.718;2023-10-31T05:47:25;2.80;;;1.20;;
51459;SDS011;37534;39.772;2.718;2023-10-31T05:49:51;1.27;;;1.05;;
51459;SDS011;37534;39.772;2.718;2023-10-31T05:52:17;1.38;;;1.23;;
51459;SDS011;37534;39.772;2.718;2023-10-31T05:54:42;2.80;;;1.10;;
51459;SDS011;37534;39.772;2.718;2023-10-31T05:57:08;2.60;;;0.93;;
51459;SDS011;37534;39.772;2.718;2023-10-31T05:59:33;1.60;;;1.05;;
51459;SDS011;37534;39.772;2.718;2023-10-31T06:01:59;1.00;;;0.70;;
51459;SDS011;37534;39.772;2.718;2023-10-31T06:04:24;2.28;;;1.27;;
51459;SDS011;37534;39.772;2.718;2023-10-31T06:06:50;3.38;;;1.40;;
51459;SDS011;37534;39.772;2.718;2023-10-31T06:09:16;2.97;;;1.20;;
51459;SDS011;37534;39.772;2.718;2023-10-31T06:11:42;1.85;;;0.80;;
51459;SDS011;37534;39.772;2.718;2023-10-31T06:14:09;4.85;;;1.83;;
51459;SDS011;37534;39.772;2.718;2023-10-31T06:16:42;5.13;;;2.00;;
51459;SDS011;37534;39.772;2.718;2023-10-31T06:21:36;3.35;;;1.40;;
51459;SDS011;37534;39.772;2.718;2023-10-31T06:24:02;1.75;;;0.60;;
51459;SDS011;37534;39.772;2.718;2023-10-31T06:26:28;2.58;;;1.48;;
51459;SDS011;37534;39.772;2.718;2023-10-31T06:28:54;7.95;;;1.98;;
51459;SDS011;37534;39.772;2.718;2023-10-31T06:31:19;3.58;;;2.75;;
51459;SDS011;37534;39.772;2.718;2023-10-31T06:33:45;2.63;;;1.40;;
51459;SDS011;37534;39.772;2.718;2023-10-31T06:36:11;4.03;;;2.10;;
51459;SDS011;37534;39.772;2.718;2023-10-31T06:38:36;2.25;;;1.48;;
51459;SDS011;37534;39.772;2.718;2023-10-31T06:41:02;6.38;;;1.42;;
51459;SDS011;37534;39.772;2.718;2023-10-31T06:43:28;4.80;;;1.90;;
51459;SDS011;37534;39.772;2.718;2023-10-31T06:45:54;2.58;;;1.10;;
51459;SDS011;37534;39.772;2.718;2023-10-31T06:48:19;2.28;;;1.90;;
51459;SDS011;37534;39.772;2.718;2023-10-31T06:50:45;2.88;;;2.10;;
51459;SDS011;37534;39.772;2.718;2023-10-31T06:53:11;2.22;;;1.90;;
51459;SDS011;37534;39.772;2.718;2023-10-31T06:55:36;3.22;;;1.63;;
51459;SDS011;37534;39.772;2.718;2023-10-31T06:58:02;5.30;;;2.03;;
51459;SDS011;37534;39.772;2.718;2023-10-31T07:00:28;2.92;;;1.95;;
51459;SDS011;37534;39.772;2.718;2023-10-31T07:02:54;4.85;;;2.00;;
51459;SDS011;37534;39.772;2.718;2023-10-31T07:05:19;5.53;;;1.63;;
51459;SDS011;37534;39.772;2.718;2023-10-31T07:07:47;7.82;;;1.35;;
51459;SDS011;37534;39.772;2.718;2023-10-31T07:10:16;7.53;;;1.60;;
51459;SDS011;37534;39.772;2.718;2023-10-31T07:12:41;5.13;;;1.45;;
51459;SDS011;37534;39.772;2.718;2023-10-31T07:18:30;8.70;;;1.80;;
51459;SDS011;37534;39.772;2.718;2023-10-31T07:20:58;6.57;;;1.85;;
51459;SDS011;37534;39.772;2.718;2023-10-31T07:23:33;4.05;;;1.48;;
51459;SDS011;37534;39.772;2.718;2023-10-31T07:26:10;4.13;;;2.00;;
51459;SDS011;37534;39.772;2.718;2023-10-31T07:28:49;2.53;;;1.98;;
51459;SDS011;37534;39.772;2.718;2023-10-31T07:31:35;8.05;;;2.13;;
51459;SDS011;37534;39.772;2.718;2023-10-31T07:34:04;5.07;;;2.63;;
51459;SDS011;37534;39.772;2.718;2023-10-31T07:36:30;8.98;;;2.95;;
51459;SDS011;37534;39.772;2.718;2023-10-31T07:38:57;5.07;;;2.80;;
51459;SDS011;37534;39.772;2.718;2023-10-31T07:41:23;6.68;;;2.30;;
51459;SDS011;37534;39.772;2.718;2023-10-31T07:43:49;9.80;;;4.85;;
51459;SDS011;37534;39.772;2.718;2023-10-31T07:46:15;17.63;;;15.35;;
51459;SDS011;37534;39.772;2.718;2023-10-31T07:48:40;20.70;;;12.95;;
51459;SDS011;37534;39.772;2.718;2023-10-31T07:51:06;13.45;;;10.23;;
51459;SDS011;37534;39.772;2.718;2023-10-31T07:53:32;11.15;;;5.82;;
51459;SDS011;37534;39.772;2.718;2023-10-31T07:55:57;9.80;;;6.10;;
51459;SDS011;37534;39.772;2.718;2023-10-31T07:58:23;9.80;;;6.45;;
51459;SDS011;37534;39.772;2.718;2023-10-31T08:04:18;10.75;;;7.32;;
51459;SDS011;37534;39.772;2.718;2023-10-31T08:13:32;35.08;;;21.92;;
51459;SDS011;37534;39.772;2.718;2023-10-31T08:26:37;8.15;;;6.72;;
51459;SDS011;37534;39.772;2.718;2023-10-31T08:29:35;15.67;;;11.13;;
51459;SDS011;37534;39.772;2.718;2023-10-31T08:35:42;10.90;;;8.00;;
51459;SDS011;37534;39.772;2.718;2023-10-31T08:41:51;20.48;;;12.57;;
51459;SDS011;37534;39.772;2.718;2023-10-31T08:47:42;24.35;;;16.65;;
51459;SDS011;37534;39.772;2.718;2023-10-31T08:50:08;26.42;;;19.40;;
51459;SDS011;37534;39.772;2.718;2023-10-31T08:52:34;26.73;;;19.45;;
51459;SDS011;37534;39.772;2.718;2023-10-31T08:55:00;37.90;;;20.30;;
51459;SDS011;37534;39.772;2.718;2023-10-31T08:57:26;25.58;;;22.88;;
51459;SDS011;37534;39.772;2.718;2023-10-31T08:59:51;21.23;;;15.68;;
51459;SDS011;37534;39.772;2.718;2023-10-31T09:02:17;6.55;;;4.10;;
51459;SDS011;37534;39.772;2.718;2023-10-31T09:04:42;7.20;;;4.45;;
51459;SDS011;37534;39.772;2.718;2023-10-31T09:07:08;6.40;;;4.20;;
51459;SDS011;37534;39.772;2.718;2023-10-31T09:09:33;6.60;;;4.97;;
51459;SDS011;37534;39.772;2.718;2023-10-31T09:11:59;9.15;;;4.57;;
51459;SDS011;37534;39.772;2.718;2023-10-31T09:14:24;3.92;;;3.53;;
51459;SDS011;37534;39.772;2.718;2023-10-31T09:16:50;5.30;;;3.50;;
51459;SDS011;37534;39.772;2.718;2023-10-31T09:19:15;6.70;;;3.58;;
51459;SDS011;37534;39.772;2.718;2023-10-31T09:21:41;11.88;;;8.70;;
51459;SDS011;37534;39.772;2.718;2023-10-31T09:24:07;14.60;;;11.45;;
51459;SDS011;37534;39.772;2.718;2023-10-31T09:26:33;13.45;;;9.50;;
51459;SDS011;37534;39.772;2.718;2023-10-31T09:28:59;6.15;;;3.55;;
51459;SDS011;37534;39.772;2.718;2023-10-31T09:31:24;3.35;;;2.28;;
51459;SDS011;37534;39.772;2.718;2023-10-31T09:33:50;4.18;;;2.13;;
51459;SDS011;37534;39.772;2.718;2023-10-31T09:36:16;2.67;;;1.60;;
51459;SDS011;37534;39.772;2.718;2023-10-31T09:38:41;1.88;;;0.98;;
51459;SDS011;37534;39.772;2.718;2023-10-31T09:41:07;2.53;;;1.35;;
51459;SDS011;37534;39.772;2.718;2023-10-31T09:43:32;3.72;;;2.33;;
51459;SDS011;37534;39.772;2.718;2023-10-31T09:45:58;2.45;;;1.80;;
51459;SDS011;37534;39.772;2.718;2023-10-31T09:48:25;3.40;;;2.30;;
51459;SDS011;37534;39.772;2.718;2023-10-31T09:50:51;2.03;;;1.38;;
51459;SDS011;37534;39.772;2.718;2023-10-31T09:53:18;6.65;;;1.30;;
51459;SDS011;37534;39.772;2.718;2023-10-31T09:55:44;3.53;;;1.33;;
51459;SDS011;37534;39.772;2.718;2023-10-31T09:58:11;1.02;;;0.90;;
51459;SDS011;37534;39.772;2.718;2023-10-31T10:00:37;1.75;;;1.40;;
51459;SDS011;37534;39.772;2.718;2023-10-31T10:03:06;5.65;;;3.13;;
51459;SDS011;37534;39.772;2.718;2023-10-31T10:05:33;8.75;;;2.97;;
51459;SDS011;37534;39.772;2.718;2023-10-31T10:08:00;3.65;;;1.75;;
51459;SDS011;37534;39.772;2.718;2023-10-31T10:10:26;4.35;;;1.98;;
51459;SDS011;37534;39.772;2.718;2023-10-31T10:12:52;2.13;;;1.08;;
51459;SDS011;37534;39.772;2.718;2023-10-31T10:15:18;13.02;;;1.30;;
51459;SDS011;37534;39.772;2.718;2023-10-31T10:17:50;6.28;;;1.45;;
51459;SDS011;37534;39.772;2.718;2023-10-31T10:20:17;2.60;;;1.08;;
51459;SDS011;37534;39.772;2.718;2023-10-31T10:22:43;2.30;;;1.10;;
51459;SDS011;37534;39.772;2.718;2023-10-31T10:25:09;2.80;;;1.23;;
51459;SDS011;37534;39.772;2.718;2023-10-31T10:27:40;6.97;;;1.00;;
51459;SDS011;37534;39.772;2.718;2023-10-31T10:30:10;2.67;;;1.42;;
51459;SDS011;37534;39.772;2.718;2023-10-31T10:32:36;2.58;;;1.00;;
51459;SDS011;37534;39.772;2.718;2023-10-31T10:35:01;2.40;;;1.00;;
51459;SDS011;37534;39.772;2.718;2023-10-31T10:37:27;2.35;;;1.35;;
51459;SDS011;37534;39.772;2.718;2023-10-31T10:39:55;2.00;;;0.80;;
51459;SDS011;37534;39.772;2.718;2023-10-31T10:42:32;5.90;;;1.67;;
51459;SDS011;37534;39.772;2.718;2023-10-31T10:45:03;1.90;;;1.50;;
51459;SDS011;37534;39.772;2.718;2023-10-31T10:47:30;2.22;;;1.23;;
51459;SDS011;37534;39.772;2.718;2023-10-31T10:49:59;3.90;;;1.10;;
51459;SDS011;37534;39.772;2.718;2023-10-31T10:55:24;1.98;;;1.00;;
51459;SDS011;37534;39.772;2.718;2023-10-31T10:58:00;2.13;;;1.70;;
51459;SDS011;37534;39.772;2.718;2023-10-31T11:00:30;5.50;;;1.42;;
51459;SDS011;37534;39.772;2.718;2023-10-31T11:02:56;4.30;;;2.15;;
51459;SDS011;37534;39.772;2.718;2023-10-31T11:05:25;3.80;;;2.20;;
51459;SDS011;37534;39.772;2.718;2023-10-31T11:07:51;4.95;;;1.52;;
51459;SDS011;37534;39.772;2.718;2023-10-31T11:10:18;4.13;;;1.75;;
51459;SDS011;37534;39.772;2.718;2023-10-31T11:12:44;3.13;;;1.60;;
51459;SDS011;37534;39.772;2.718;2023-10-31T11:15:11;10.02;;;2.17;;
51459;SDS011;37534;39.772;2.718;2023-10-31T11:17:40;2.08;;;1.02;;
51459;SDS011;37534;39.772;2.718;2023-10-31T11:20:12;2.50;;;1.88;;
51459;SDS011;37534;39.772;2.718;2023-10-31T11:22:40;3.70;;;1.92;;
51459;SDS011;37534;39.772;2.718;2023-10-31T11:25:10;4.05;;;2.13;;
51459;SDS011;37534;39.772;2.718;2023-10-31T11:27:38;3.85;;;2.28;;
51459;SDS011;37534;39.772;2.718;2023-10-31T11:30:06;3.88;;;2.47;;
51459;SDS011;37534;39.772;2.718;2023-10-31T11:32:53;3.78;;;1.88;;
51459;SDS011;37534;39.772;2.718;2023-10-31T11:35:26;2.60;;;1.25;;
51459;SDS011;37534;39.772;2.718;2023-10-31T11:38:01;2.80;;;1.45;;
51459;SDS011;37534;39.772;2.718;2023-10-31T11:40:37;2.35;;;1.10;;
51459;SDS011;37534;39.772;2.718;2023-10-31T11:43:23;2.83;;;1.80;;
51459;SDS011;37534;39.772;2.718;2023-10-31T11:45:50;5.68;;;1.13;;
51459;SDS011;37534;39.772;2.718;2023-10-31T11:55:03;1.27;;;0.82;;
51459;SDS011;37534;39.772;2.718;2023-10-31T12:01:52;4.15;;;1.73;;
51459;SDS011;37534;39.772;2.718;2023-10-31T12:05:11;3.05;;;1.65;;
51459;SDS011;37534;39.772;2.718;2023-10-31T12:07:44;1.90;;;0.70;;
51459;SDS011;37534;39.772;2.718;2023-10-31T12:10:10;1.80;;;0.80;;
51459;SDS011;37534;39.772;2.718;2023-10-31T12:12:37;3.45;;;2.50;;
51459;SDS011;37534;39.772;2.718;2023-10-31T12:15:07;2.35;;;1.23;;
51459;SDS011;37534;39.772;2.718;2023-10-31T12:17:34;3.13;;;0.90;;
51459;SDS011;37534;39.772;2.718;2023-10-31T12:20:07;1.08;;;0.90;;
51459;SDS011;37534;39.772;2.718;2023-10-31T12:22:34;0.93;;;0.75;;
51459;SDS011;37534;39.772;2.718;2023-10-31T12:25:01;0.80;;;0.80;;
51459;SDS011;37534;39.772;2.718;2023-10-31T12:27:47;1.67;;;0.90;;
51459;SDS011;37534;39.772;2.718;2023-10-31T12:30:16;1.80;;;1.00;;
51459;SDS011;37534;39.772;2.718;2023-10-31T12:32:44;8.40;;;1.00;;
51459;SDS011;37534;39.772;2.718;2023-10-31T12:35:10;2.25;;;1.23;;
51459;SDS011;37534;39.772;2.718;2023-10-31T12:37:45;2.15;;;1.25;;
51459;SDS011;37534;39.772;2.718;2023-10-31T12:40:21;2.77;;;1.87;;
51459;SDS011;37534;39.772;2.718;2023-10-31T12:42:48;7.50;;;4.22;;
51459;SDS011;37534;39.772;2.718;2023-10-31T12:45:15;4.05;;;2.95;;
51459;SDS011;37534;39.772;2.718;2023-10-31T12:47:42;2.53;;;1.73;;
51459;SDS011;37534;39.772;2.718;2023-10-31T12:50:15;2.22;;;1.05;;
51459;SDS011;37534;39.772;2.718;2023-10-31T12:52:45;2.63;;;1.67;;
51459;SDS011;37534;39.772;2.718;2023-10-31T12:55:18;5.10;;;1.30;;
51459;SDS011;37534;39.772;2.718;2023-10-31T12:57:45;1.77;;;0.90;;
51459;SDS011;37534;39.772;2.718;2023-10-31T13:00:12;1.77;;;0.93;;
51459;SDS011;37534;39.772;2.718;2023-10-31T13:02:39;5.30;;;0.63;;
51459;SDS011;37534;39.772;2.718;2023-10-31T13:05:09;2.78;;;0.90;;
51459;SDS011;37534;39.772;2.718;2023-10-31T13:07:39;5.55;;;1.17;;
51459;SDS011;37534;39.772;2.718;2023-10-31T13:10:06;2.53;;;1.42;;
51459;SDS011;37534;39.772;2.718;2023-10-31T13:12:35;5.35;;;1.52;;
51459;SDS011;37534;39.772;2.718;2023-10-31T13:15:00;2.83;;;1.63;;
51459;SDS011;37534;39.772;2.718;2023-10-31T13:17:26;1.45;;;1.05;;
51459;SDS011;37534;39.772;2.718;2023-10-31T13:19:53;1.42;;;0.85;;
51459;SDS011;37534;39.772;2.718;2023-10-31T13:22:18;2.70;;;1.40;;
51459;SDS011;37534;39.772;2.718;2023-10-31T13:24:44;3.88;;;1.20;;
51459;SDS011;37534;39.772;2.718;2023-10-31T13:27:10;4.88;;;0.80;;
51459;SDS011;37534;39.772;2.718;2023-10-31T13:29:41;2.40;;;1.25;;
51459;SDS011;37534;39.772;2.718;2023-10-31T13:32:07;1.13;;;0.70;;
51459;SDS011;37534;39.772;2.718;2023-10-31T13:34:33;2.10;;;0.90;;
51459;SDS011;37534;39.772;2.718;2023-10-31T13:36:59;1.92;;;0.90;;
51459;SDS011;37534;39.772;2.718;2023-10-31T13:39:25;2.45;;;1.20;;
51459;SDS011;37534;39.772;2.718;2023-10-31T13:41:50;3.47;;;1.20;;
51459;SDS011;37534;39.772;2.718;2023-10-31T13:44:16;1.75;;;0.77;;
51459;SDS011;37534;39.772;2.718;2023-10-31T13:46:41;6.70;;;1.67;;
51459;SDS011;37534;39.772;2.718;2023-10-31T13:49:08;2.00;;;0.77;;
51459;SDS011;37534;39.772;2.718;2023-10-31T13:51:33;2.25;;;1.30;;
51459;SDS011;37534;39.772;2.718;2023-10-31T13:53:58;5.25;;;1.40;;
51459;SDS011;37534;39.772;2.718;2023-10-31T13:56:24;1.15;;;0.70;;
51459;SDS011;37534;39.772;2.718;2023-10-31T13:58:49;2.80;;;1.30;;
51459;SDS011;37534;39.772;2.718;2023-10-31T14:01:15;3.70;;;1.23;;
51459;SDS011;37534;39.772;2.718;2023-10-31T14:03:40;3.58;;;0.73;;
51459;SDS011;37534;39.772;2.718;2023-10-31T14:06:06;1.75;;;0.82;;
51459;SDS011;37534;39.772;2.718;2023-10-31T14:08:32;4.43;;;2.08;;
51459;SDS011;37534;39.772;2.718;2023-10-31T14:10:57;3.55;;;0.93;;
51459;SDS011;37534;39.772;2.718;2023-10-31T14:13:23;2.95;;;1.23;;
51459;SDS011;37534;39.772;2.718;2023-10-31T14:15:48;2.17;;;1.08;;
51459;SDS011;37534;39.772;2.718;2023-10-31T14:18:14;7.55;;;1.58;;
51459;SDS011;37534;39.772;2.718;2023-10-31T14:20:40;3.75;;;1.10;;
51459;SDS011;37534;39.772;2.718;2023-10-31T14:23:06;2.13;;;1.23;;
51459;SDS011;37534;39.772;2.718;2023-10-31T14:25:32;1.33;;;0.90;;
51459;SDS011;37534;39.772;2.718;2023-10-31T14:27:57;1.15;;;0.93;;
51459;SDS011;37534;39.772;2.718;2023-10-31T14:30:23;4.03;;;1.23;;
51459;SDS011;37534;39.772;2.718;2023-10-31T14:32:48;2.35;;;1.60;;
51459;SDS011;37534;39.772;2.718;2023-10-31T14:35:14;1.45;;;0.90;;
51459;SDS011;37534;39.772;2.718;2023-10-31T14:37:40;2.20;;;1.27;;
51459;SDS011;37534;39.772;2.718;2023-10-31T14:40:06;1.85;;;0.93;;
51459;SDS011;37534;39.772;2.718;2023-10-31T14:42:32;8.57;;;2.60;;
51459;SDS011;37534;39.772;2.718;2023-10-31T14:44:58;2.75;;;2.40;;
51459;SDS011;37534;39.772;2.718;2023-10-31T14:47:25;3.88;;;2.40;;
51459;SDS011;37534;39.772;2.718;2023-10-31T14:49:51;2.20;;;1.52;;
51459;SDS011;37534;39.772;2.718;2023-10-31T14:52:16;2.33;;;1.10;;
51459;SDS011;37534;39.772;2.718;2023-10-31T14:54:42;5.78;;;1.20;;
51459;SDS011;37534;39.772;2.718;2023-10-31T14:57:07;1.58;;;0.90;;
51459;SDS011;37534;39.772;2.718;2023-10-31T14:59:33;1.08;;;0.70;;
51459;SDS011;37534;39.772;2.718;2023-10-31T15:01:59;6.35;;;0.75;;
51459;SDS011;37534;39.772;2.718;2023-10-31T15:04:24;1.02;;;0.68;;
51459;SDS011;37534;39.772;2.718;2023-10-31T15:06:50;0.40;;;0.40;;
51459;SDS011;37534;39.772;2.718;2023-10-31T15:09:15;3.05;;;1.05;;
51459;SDS011;37534;39.772;2.718;2023-10-31T15:11:44;3.95;;;1.33;;
51459;SDS011;37534;39.772;2.718;2023-10-31T15:14:09;0.73;;;0.70;;
51459;SDS011;37534;39.772;2.718;2023-10-31T15:16:35;1.80;;;1.02;;
51459;SDS011;37534;39.772;2.718;2023-10-31T15:19:01;2.80;;;1.48;;
51459;SDS011;37534;39.772;2.718;2023-10-31T15:24:51;4.27;;;1.73;;
51459;SDS011;37534;39.772;2.718;2023-10-31T15:27:17;5.25;;;4.20;;
51459;SDS011;37534;39.772;2.718;2023-10-31T15:30:11;5.15;;;4.70;;
51459;SDS011;37534;39.772;2.718;2023-10-31T15:32:38;8.50;;;5.53;;
51459;SDS011;37534;39.772;2.718;2023-10-31T15:35:09;4.95;;;3.90;;
51459;SDS011;37534;39.772;2.718;2023-10-31T15:37:44;5.72;;;3.08;;
51459;SDS011;37534;39.772;2.718;2023-10-31T15:40:15;5.72;;;3.53;;
51459;SDS011;37534;39.772;2.718;2023-10-31T15:42:58;8.93;;;5.05;;
51459;SDS011;37534;39.772;2.718;2023-10-31T15:45:29;6.68;;;4.28;;
51459;SDS011;37534;39.772;2.718;2023-10-31T15:48:12;7.28;;;3.80;;
51459;SDS011;37534;39.772;2.718;2023-10-31T15:50:55;7.43;;;3.35;;
51459;SDS011;37534;39.772;2.718;2023-10-31T15:53:29;7.40;;;3.00;;